createdAt,value
2022-10-16T00:01:32.187Z,4.87
2022-10-16T00:04:00.417Z,5.37
2022-10-16T00:06:28.908Z,5.13
2022-10-16T00:08:56.484Z,4.70
2022-10-16T00:11:25.906Z,4.87
2022-10-16T00:13:57.738Z,5.60
2022-10-16T00:16:24.856Z,5.80
2022-10-16T00:19:01.153Z,6.73
2022-10-16T00:21:31.766Z,7.27
2022-10-16T00:26:41.173Z,7.77
2022-10-16T00:29:08.668Z,8.17
2022-10-16T00:31:36.113Z,8.40
2022-10-16T00:34:03.354Z,9.17
2022-10-16T00:36:30.414Z,9.70
2022-10-16T00:41:28.434Z,10.27
2022-10-16T00:44:04.555Z,11.07
2022-10-16T00:46:43.648Z,13.00
2022-10-16T00:49:13.575Z,13.10
2022-10-16T00:51:45.604Z,14.43
2022-10-16T00:54:33.194Z,16.47
2022-10-16T00:57:03.395Z,15.63
2022-10-16T00:59:37.323Z,16.40
2022-10-16T01:02:07.257Z,16.43
2022-10-16T01:04:42.122Z,17.47
2022-10-16T01:07:27.099Z,17.37
2022-10-16T01:10:08.870Z,16.10
2022-10-16T01:12:53.089Z,15.43
2022-10-16T01:15:36.695Z,15.40
2022-10-16T01:18:23.063Z,15.83
2022-10-16T01:21:01.553Z,15.07
2022-10-16T01:23:46.497Z,14.90
2022-10-16T01:26:26.136Z,13.83
2022-10-16T01:29:01.644Z,14.40
2022-10-16T01:31:33.441Z,14.93
2022-10-16T01:34:06.732Z,14.57
2022-10-16T01:36:52.573Z,16.27
2022-10-16T01:39:24.172Z,17.20
2022-10-16T01:42:27.357Z,17.63
2022-10-16T01:44:56.101Z,16.37
2022-10-16T01:47:26.676Z,18.40
2022-10-16T01:49:55.511Z,19.30
2022-10-16T01:52:25.787Z,18.50
2022-10-16T01:54:56.638Z,18.97
2022-10-16T01:57:26.807Z,19.00
2022-10-16T01:59:59.232Z,20.00
2022-10-16T02:02:29.666Z,19.53
2022-10-16T02:05:03.821Z,20.67
2022-10-16T02:07:30.915Z,21.83
2022-10-16T02:09:58.393Z,21.07
2022-10-16T02:12:32.698Z,21.40
2022-10-16T02:14:59.895Z,21.97
2022-10-16T02:17:27.076Z,21.90
2022-10-16T02:19:56.088Z,23.00
2022-10-16T02:22:32.179Z,23.20
2022-10-16T02:25:06.621Z,23.27
2022-10-16T02:27:41.366Z,24.10
2022-10-16T02:30:17.243Z,24.90
2022-10-16T02:32:47.681Z,24.70
2022-10-16T02:35:19.798Z,25.63
2022-10-16T02:37:48.931Z,25.30
2022-10-16T02:40:18.340Z,26.13
2022-10-16T02:42:54.645Z,26.93
2022-10-16T02:45:22.148Z,26.33
2022-10-16T02:47:49.904Z,26.87
2022-10-16T02:50:17.717Z,25.73
2022-10-16T02:52:44.514Z,27.67
2022-10-16T02:55:11.535Z,25.60
2022-10-16T02:57:39.689Z,27.00
2022-10-16T03:00:07.740Z,27.37
2022-10-16T03:02:34.801Z,26.53
2022-10-16T03:05:01.722Z,26.10
2022-10-16T03:07:28.756Z,27.07
2022-10-16T03:09:56.529Z,27.43
2022-10-16T03:12:23.482Z,25.20
2022-10-16T03:14:50.483Z,29.50
2022-10-16T03:17:17.926Z,25.67
2022-10-16T03:19:45.032Z,24.43
2022-10-16T03:22:12.314Z,23.67
2022-10-16T03:24:39.399Z,23.43
2022-10-16T03:27:06.331Z,24.13
2022-10-16T03:29:34.089Z,22.87
2022-10-16T03:32:01.373Z,22.50
2022-10-16T03:34:28.993Z,22.57
2022-10-16T03:36:55.876Z,22.93
2022-10-16T03:39:22.789Z,22.00
2022-10-16T03:41:49.652Z,22.00
2022-10-16T03:44:16.753Z,22.00
2022-10-16T03:46:43.845Z,21.83
2022-10-16T03:49:10.688Z,19.20
2022-10-16T03:51:37.668Z,19.87
2022-10-16T03:54:04.890Z,19.80
2022-10-16T03:56:31.851Z,19.60
2022-10-16T03:58:58.825Z,19.03
2022-10-16T04:01:26.125Z,18.40
2022-10-16T04:03:53.025Z,19.83
2022-10-16T04:06:19.947Z,18.67
2022-10-16T04:08:46.890Z,18.33
2022-10-16T04:11:14.388Z,19.13
2022-10-16T04:13:41.383Z,17.90
2022-10-16T04:16:08.932Z,17.73
2022-10-16T04:18:36.376Z,17.67
2022-10-16T04:21:07.543Z,18.97
2022-10-16T04:23:35.014Z,17.97
2022-10-16T04:26:02.121Z,16.97
2022-10-16T04:28:29.523Z,17.07
2022-10-16T04:30:57.190Z,17.63
2022-10-16T04:33:25.475Z,17.33
2022-10-16T04:36:00.175Z,17.20
2022-10-16T04:38:27.398Z,18.60
2022-10-16T04:40:58.208Z,17.03
2022-10-16T04:43:25.517Z,16.40
2022-10-16T04:45:52.797Z,16.77
2022-10-16T04:48:20.665Z,16.37
2022-10-16T04:50:51.652Z,16.83
2022-10-16T04:53:22.025Z,15.97
2022-10-16T04:55:48.894Z,16.77
2022-10-16T04:58:16.151Z,17.67
2022-10-16T05:00:43.140Z,15.60
2022-10-16T05:03:10.320Z,17.07
2022-10-16T05:05:37.847Z,15.60
2022-10-16T05:08:05.144Z,16.23
2022-10-16T05:10:32.413Z,16.40
2022-10-16T05:13:00.348Z,15.07
2022-10-16T05:15:27.390Z,15.77
2022-10-16T05:17:55.699Z,16.30
2022-10-16T05:20:23.948Z,15.83
2022-10-16T05:22:51.065Z,16.27
2022-10-16T05:25:18.288Z,15.43
2022-10-16T05:27:48.525Z,16.00
2022-10-16T05:30:15.785Z,16.37
2022-10-16T05:32:47.537Z,16.33
2022-10-16T05:35:15.098Z,15.23
2022-10-16T05:37:43.367Z,17.67
2022-10-16T05:40:11.090Z,16.57
2022-10-16T05:42:38.365Z,15.90
2022-10-16T05:45:07.904Z,15.17
2022-10-16T05:47:37.839Z,15.63
2022-10-16T05:50:05.395Z,16.10
2022-10-16T05:52:35.589Z,16.40
2022-10-16T05:55:02.875Z,16.87
2022-10-16T05:57:31.255Z,16.17
2022-10-16T05:59:58.813Z,15.97
2022-10-16T06:02:25.984Z,16.10
2022-10-16T06:04:56.073Z,16.20
2022-10-16T06:07:24.246Z,15.73
2022-10-16T06:09:52.851Z,14.83
2022-10-16T06:12:20.601Z,13.00
2022-10-16T06:14:48.176Z,13.83
2022-10-16T06:17:16.347Z,12.70
2022-10-16T06:19:43.516Z,13.10
2022-10-16T06:22:11.098Z,13.13
2022-10-16T06:24:45.517Z,11.57
2022-10-16T06:27:14.147Z,11.97
2022-10-16T06:29:42.587Z,11.27
2022-10-16T06:32:11.379Z,10.67
2022-10-16T06:34:41.896Z,11.23
2022-10-16T06:37:11.402Z,9.13
2022-10-16T06:39:39.196Z,9.77
2022-10-16T06:42:08.713Z,8.87
2022-10-16T06:44:35.569Z,8.27
2022-10-16T06:47:02.660Z,7.73
2022-10-16T06:49:30.106Z,7.93
2022-10-16T06:51:57.810Z,6.95
2022-10-16T06:54:27.834Z,6.13
2022-10-16T06:56:55.750Z,5.60
2022-10-16T06:59:22.931Z,5.67
2022-10-16T07:01:50.026Z,5.37
2022-10-16T07:04:22.464Z,4.53
2022-10-16T07:06:49.590Z,4.87
2022-10-16T07:09:16.428Z,4.40
2022-10-16T07:11:45.621Z,4.70
2022-10-16T07:14:19.035Z,4.27
2022-10-16T07:16:46.405Z,4.47
2022-10-16T07:19:15.740Z,4.43
2022-10-16T07:21:42.975Z,4.17
2022-10-16T07:24:15.586Z,3.80
2022-10-16T07:26:46.191Z,3.57
2022-10-16T07:29:18.526Z,3.30
2022-10-16T07:31:46.608Z,3.22
2022-10-16T07:34:16.475Z,2.70
2022-10-16T07:36:43.627Z,2.88
2022-10-16T07:39:10.707Z,2.58
2022-10-16T07:41:38.342Z,2.83
2022-10-16T07:44:05.962Z,2.50
2022-10-16T07:46:34.796Z,2.90
2022-10-16T07:49:01.720Z,2.70
2022-10-16T07:51:28.908Z,2.80
2022-10-16T07:53:56.468Z,2.93
2022-10-16T07:56:23.978Z,2.60
2022-10-16T07:58:52.303Z,2.40
2022-10-16T08:01:20.316Z,2.63
2022-10-16T08:03:49.822Z,2.20
2022-10-16T08:06:20.729Z,2.30
2022-10-16T08:08:50.885Z,2.17
2022-10-16T08:11:21.025Z,2.40
2022-10-16T08:13:48.083Z,2.20
2022-10-16T08:16:15.409Z,2.50
2022-10-16T08:18:42.634Z,2.47
2022-10-16T08:21:20.149Z,1.87
2022-10-16T08:23:52.911Z,2.20
2022-10-16T08:26:24.084Z,2.10
2022-10-16T08:28:52.827Z,2.17
2022-10-16T08:31:19.942Z,2.30
2022-10-16T08:33:48.347Z,1.70
2022-10-16T08:36:16.950Z,1.83
2022-10-16T08:38:44.438Z,2.17
2022-10-16T08:41:11.442Z,1.90
2022-10-16T08:44:16.873Z,2.40
2022-10-16T08:47:07.750Z,2.40
2022-10-16T08:49:35.387Z,2.50
2022-10-16T08:52:04.511Z,2.03
2022-10-16T08:54:41.921Z,2.33
2022-10-16T08:57:25.195Z,2.10
2022-10-16T09:00:14.566Z,2.17
2022-10-16T09:03:21.972Z,1.90
2022-10-16T09:06:29.934Z,1.70
2022-10-16T09:09:09.115Z,1.80
2022-10-16T09:14:57.501Z,1.90
2022-10-16T12:13:41.154Z,11.17
2022-10-16T12:16:16.413Z,4.93
2022-10-16T12:18:48.004Z,3.00
2022-10-16T12:21:21.412Z,2.80
2022-10-16T12:42:36.798Z,2.30
2022-10-16T12:45:38.637Z,2.33
2022-10-16T12:48:26.524Z,2.33
2022-10-16T12:51:11.801Z,2.20
2022-10-16T12:53:39.184Z,1.90
2022-10-16T12:56:24.669Z,2.30
2022-10-16T12:59:01.426Z,2.10
2022-10-16T13:01:44.393Z,2.00
2022-10-16T13:04:34.831Z,2.00
2022-10-16T13:07:50.781Z,1.83
2022-10-16T13:10:55.876Z,2.03
2022-10-16T13:13:47.994Z,2.30
2022-10-16T13:16:47.013Z,2.37
2022-10-16T13:19:20.091Z,1.97
2022-10-16T13:22:04.268Z,2.17
2022-10-16T13:24:34.236Z,2.00
2022-10-16T13:27:03.974Z,2.10
2022-10-16T13:29:35.056Z,2.37
2022-10-16T13:35:24.364Z,2.10
2022-10-16T13:37:51.746Z,2.50
2022-10-16T13:40:26.078Z,2.30
2022-10-16T13:42:55.030Z,2.50
2022-10-16T13:45:27.057Z,2.37
2022-10-16T13:48:05.851Z,2.13
2022-10-16T13:50:33.297Z,2.03
2022-10-16T13:53:19.234Z,2.37
2022-10-16T13:55:46.234Z,1.77
2022-10-16T13:58:16.263Z,1.70
2022-10-16T14:00:59.638Z,2.30
2022-10-16T14:03:28.479Z,2.27
2022-10-16T14:06:01.933Z,2.10
2022-10-16T14:08:30.879Z,1.90
2022-10-16T14:11:00.782Z,1.83
2022-10-16T14:13:38.448Z,2.07
2022-10-16T14:16:17.457Z,2.13
2022-10-16T14:21:24.309Z,2.30
2022-10-16T14:23:51.470Z,2.23
2022-10-16T14:26:22.001Z,2.23
2022-10-16T14:28:50.328Z,1.90
2022-10-16T14:31:40.151Z,1.80
2022-10-16T14:34:33.869Z,1.90
2022-10-16T14:37:28.741Z,2.20
2022-10-16T14:39:57.139Z,2.30
2022-10-16T14:42:29.663Z,2.20
2022-10-16T14:44:57.906Z,1.97
2022-10-16T14:47:28.456Z,2.23
2022-10-16T14:50:00.773Z,2.10
2022-10-16T14:52:30.585Z,2.30
2022-10-16T14:54:57.575Z,1.97
2022-10-16T14:57:27.608Z,1.90
2022-10-16T14:59:55.182Z,2.07
2022-10-16T15:02:34.117Z,2.27
2022-10-16T15:05:17.597Z,2.10
2022-10-16T15:07:47.933Z,1.97
2022-10-16T15:10:16.530Z,2.07
2022-10-16T15:12:44.972Z,2.40
2022-10-16T15:15:24.226Z,1.80
2022-10-16T15:17:59.457Z,1.93
2022-10-16T15:25:35.535Z,1.88
2022-10-16T15:28:04.921Z,1.60
2022-10-16T15:30:32.233Z,1.90
2022-10-16T15:32:59.448Z,2.07
2022-10-16T15:35:28.050Z,2.40
2022-10-16T15:37:55.190Z,1.77
2022-10-16T15:40:25.058Z,2.43
2022-10-16T15:42:52.488Z,2.60
2022-10-16T15:45:20.328Z,2.63
2022-10-16T15:47:47.944Z,2.03
2022-10-16T15:50:16.778Z,2.57
2022-10-16T15:52:44.032Z,2.30
2022-10-16T15:55:13.948Z,2.37
2022-10-16T15:57:43.772Z,2.00
2022-10-16T16:00:17.141Z,2.77
2022-10-16T16:02:48.289Z,4.07
2022-10-16T16:05:15.347Z,7.20
2022-10-16T16:07:42.548Z,8.17
2022-10-16T16:10:14.236Z,9.00
2022-10-16T16:17:38.318Z,4.10
2022-10-16T16:20:08.841Z,3.97
2022-10-16T16:22:35.903Z,3.07
2022-10-16T16:27:31.258Z,3.15
2022-10-16T16:29:58.837Z,3.83
2022-10-16T16:32:25.962Z,2.80
2022-10-16T16:34:52.917Z,3.10
2022-10-16T16:37:19.953Z,2.87
2022-10-16T16:39:52.664Z,3.20
2022-10-16T16:42:20.125Z,3.50
2022-10-16T16:44:49.791Z,3.60
2022-10-16T16:49:43.357Z,13.95
2022-10-16T16:52:10.733Z,10.70
2022-10-16T16:54:37.615Z,10.13
2022-10-16T16:57:06.602Z,10.85
2022-10-16T16:59:36.130Z,12.90
2022-10-16T17:02:03.962Z,10.03
2022-10-16T17:04:33.073Z,10.17
2022-10-16T17:07:00.120Z,10.73
2022-10-16T17:09:27.071Z,9.73
2022-10-16T17:11:54.247Z,8.57
2022-10-16T17:14:21.339Z,7.00
2022-10-16T17:16:50.076Z,5.83
2022-10-16T17:46:40.198Z,5.47
2022-10-16T17:49:09.907Z,4.00
2022-10-16T17:51:37.094Z,5.13
2022-10-16T17:54:04.230Z,6.00
2022-10-16T17:56:32.080Z,7.87
2022-10-16T17:59:01.363Z,6.87
2022-10-16T18:01:31.409Z,8.43
2022-10-16T18:04:01.604Z,6.47
2022-10-16T18:06:29.788Z,5.80
2022-10-16T18:08:58.207Z,7.20
2022-10-16T18:11:25.205Z,7.17
2022-10-16T18:13:53.761Z,7.90
2022-10-16T18:16:21.723Z,8.00
2022-10-16T18:18:48.733Z,6.93
2022-10-16T18:21:17.968Z,6.10
2022-10-16T18:23:50.878Z,5.03
2022-10-16T18:26:19.831Z,4.93
2022-10-16T18:28:46.910Z,5.30
2022-10-16T18:31:16.310Z,5.20
2022-10-16T18:33:51.465Z,5.03
2022-10-16T18:36:32.622Z,8.80
2022-10-16T18:39:01.059Z,9.17
2022-10-16T18:41:28.510Z,6.83
2022-10-16T18:43:58.396Z,5.07
2022-10-16T18:46:26.756Z,4.73
2022-10-16T18:48:54.525Z,5.27
2022-10-16T18:51:24.144Z,4.50
2022-10-16T18:53:53.894Z,5.17
2022-10-16T18:56:23.425Z,4.37
2022-10-16T18:59:51.258Z,4.10
2022-10-16T19:01:52.699Z,7.17
2022-10-16T19:12:25.610Z,6.50
2022-10-16T19:14:55.269Z,6.20
2022-10-16T19:17:25.468Z,5.23
2022-10-16T19:19:52.965Z,6.00
2022-10-16T19:22:41.066Z,6.70
2022-10-16T19:26:01.155Z,5.40
2022-10-16T19:28:28.049Z,5.30
2022-10-16T19:30:54.962Z,5.37
2022-10-16T19:33:22.192Z,5.60
2022-10-16T19:35:49.090Z,5.43
2022-10-16T19:38:18.208Z,6.07
2022-10-16T19:40:45.651Z,4.67
2022-10-16T19:43:13.864Z,5.30
2022-10-16T19:45:40.764Z,5.07
2022-10-16T19:48:07.850Z,4.53
2022-10-16T19:50:35.123Z,4.60
2022-10-16T19:53:02.009Z,5.03
2022-10-16T19:55:31.674Z,6.60
2022-10-16T19:57:58.620Z,5.93
2022-10-16T20:00:28.664Z,5.80
2022-10-16T20:02:58.704Z,5.20
2022-10-16T20:05:25.731Z,9.07
2022-10-16T20:07:52.555Z,8.50
2022-10-16T20:10:19.568Z,7.57
2022-10-16T20:12:48.927Z,7.07
2022-10-16T20:15:23.197Z,5.90
2022-10-16T20:17:50.384Z,6.70
2022-10-16T20:20:17.933Z,5.40
2022-10-16T20:22:44.932Z,5.77
2022-10-16T20:25:14.374Z,5.10
2022-10-16T20:27:43.790Z,5.70
2022-10-16T20:30:11.566Z,5.13
2022-10-16T20:32:38.645Z,4.77
2022-10-16T20:35:07.946Z,5.83
2022-10-16T20:37:37.162Z,5.70
2022-10-16T20:40:04.324Z,5.90
2022-10-16T20:42:31.212Z,7.10
2022-10-16T20:44:58.120Z,6.93
2022-10-16T20:47:25.232Z,6.63
2022-10-16T20:49:53.353Z,6.43
2022-10-16T20:52:20.205Z,6.20
2022-10-16T20:54:47.260Z,7.63
2022-10-16T20:57:14.428Z,7.00
2022-10-16T20:59:44.329Z,6.87
2022-10-16T21:02:14.254Z,6.67
2022-10-16T21:04:41.692Z,6.90
2022-10-16T21:07:08.619Z,6.90
2022-10-16T21:09:35.502Z,6.90
2022-10-16T21:12:05.310Z,6.73
2022-10-16T21:14:32.403Z,6.00
2022-10-16T21:16:59.760Z,7.00
2022-10-16T21:19:28.959Z,6.97
2022-10-16T21:22:01.891Z,6.57
2022-10-16T21:24:28.829Z,7.10
2022-10-16T21:26:56.070Z,7.17
2022-10-16T21:29:23.408Z,8.00
2022-10-16T21:31:53.317Z,8.73
2022-10-16T21:34:24.822Z,8.63
2022-10-16T21:36:54.258Z,8.70
2022-10-16T21:39:40.122Z,8.50
2022-10-16T21:42:09.909Z,8.30
2022-10-16T21:44:47.981Z,9.20
2022-10-16T21:47:17.284Z,8.27
2022-10-16T21:49:50.023Z,8.73
2022-10-16T21:52:17.151Z,10.27
2022-10-16T21:54:52.866Z,8.60
2022-10-16T21:57:27.579Z,8.60
2022-10-16T21:59:54.698Z,9.27
2022-10-16T22:02:21.785Z,15.27
2022-10-16T22:04:48.871Z,12.37
2022-10-16T22:07:18.317Z,10.97
2022-10-16T22:09:45.327Z,10.60
2022-10-16T22:12:19.721Z,10.30
2022-10-16T22:14:51.869Z,10.90
2022-10-16T22:17:20.580Z,10.07
2022-10-16T22:19:55.023Z,9.53
2022-10-16T22:22:21.935Z,9.17
2022-10-16T22:24:51.494Z,9.23
2022-10-16T22:27:18.374Z,9.50
2022-10-16T22:29:45.484Z,10.50
2022-10-16T22:32:12.790Z,9.67
2022-10-16T22:34:39.734Z,10.13
2022-10-16T22:37:06.622Z,9.10
2022-10-16T22:39:33.671Z,9.53
2022-10-16T22:42:06.250Z,9.53
2022-10-16T22:44:33.339Z,10.37
2022-10-16T22:47:05.938Z,10.00
2022-10-16T22:49:32.929Z,10.60
2022-10-16T22:51:59.910Z,10.60
2022-10-16T22:54:27.457Z,10.40
2022-10-16T22:56:54.406Z,10.07
2022-10-16T22:59:21.261Z,10.77
2022-10-16T23:01:58.743Z,11.17
2022-10-16T23:04:25.726Z,11.77
2022-10-16T23:06:52.826Z,12.50
2022-10-16T23:09:19.689Z,11.63
2022-10-16T23:11:46.609Z,12.33
2022-10-16T23:14:14.174Z,12.53
2022-10-16T23:16:41.253Z,12.43
2022-10-16T23:21:36.875Z,12.27
2022-10-16T23:24:04.197Z,12.53
2022-10-16T23:26:31.182Z,13.13
2022-10-16T23:29:01.601Z,12.40
2022-10-16T23:31:29.646Z,13.27
2022-10-16T23:33:58.625Z,13.33
2022-10-16T23:36:25.950Z,13.10
2022-10-16T23:38:53.814Z,13.40
2022-10-16T23:41:21.075Z,13.67
2022-10-16T23:43:51.507Z,13.63
2022-10-16T23:46:18.839Z,13.43
2022-10-16T23:48:46.078Z,14.00
2022-10-16T23:51:13.272Z,13.87
2022-10-16T23:53:40.513Z,13.90
2022-10-16T23:56:20.129Z,14.00
2022-10-16T23:58:47.371Z,14.13
